createdAt,value
2019-01-31T00:00:44.408Z,26.83
2019-01-31T00:03:21.850Z,27.80
2019-01-31T00:05:56.789Z,25.63
2019-01-31T00:08:45.955Z,25.20
2019-01-31T00:11:41.102Z,27.73
2019-01-31T00:14:30.613Z,27.83
2019-01-31T00:17:31.496Z,27.93
2019-01-31T00:20:04.452Z,23.83
2019-01-31T00:22:54.345Z,27.70
2019-01-31T00:25:40.710Z,27.57
2019-01-31T00:28:27.041Z,28.70
2019-01-31T00:31:10.404Z,28.13
2019-01-31T00:33:50.804Z,29.87
2019-01-31T00:36:28.044Z,28.87
2019-01-31T00:39:11.856Z,29.37
2019-01-31T00:42:07.556Z,32.23
2019-01-31T00:44:48.140Z,31.30
2019-01-31T00:47:31.768Z,30.97
2019-01-31T00:50:24.721Z,31.00
2019-01-31T00:53:12.964Z,29.90
2019-01-31T00:56:00.076Z,27.80
2019-01-31T00:58:44.025Z,31.20
2019-01-31T01:01:15.601Z,31.50
2019-01-31T01:03:47.148Z,33.43
2019-01-31T01:06:21.958Z,31.27
2019-01-31T01:09:07.622Z,30.77
2019-01-31T01:11:38.811Z,32.17
2019-01-31T01:14:10.341Z,27.10
2019-01-31T01:16:41.866Z,32.23
2019-01-31T01:19:16.366Z,32.23
2019-01-31T01:22:09.185Z,34.13
2019-01-31T01:24:52.651Z,33.13
2019-01-31T01:27:39.021Z,34.13
2019-01-31T01:30:25.480Z,30.37
2019-01-31T01:32:57.348Z,29.20
2019-01-31T01:35:34.625Z,32.00
2019-01-31T01:38:18.457Z,34.40
2019-01-31T01:40:59.085Z,33.10
2019-01-31T01:43:36.737Z,34.90
2019-01-31T01:46:08.549Z,32.87
2019-01-31T01:48:51.759Z,34.10
2019-01-31T01:51:32.153Z,33.67
2019-01-31T01:54:18.653Z,33.40
2019-01-31T01:57:06.831Z,32.53
2019-01-31T01:59:38.653Z,32.97
2019-01-31T02:02:29.995Z,31.30
2019-01-31T02:05:23.165Z,33.60
2019-01-31T02:08:06.806Z,33.70
2019-01-31T02:10:46.935Z,32.50
2019-01-31T02:13:27.615Z,35.13
2019-01-31T02:16:24.577Z,33.97
2019-01-31T02:18:58.821Z,35.20
2019-01-31T02:21:32.990Z,32.80
2019-01-31T02:24:10.693Z,32.43
2019-01-31T02:26:54.219Z,32.50
2019-01-31T02:29:31.818Z,34.20
2019-01-31T02:32:15.213Z,34.50
2019-01-31T02:34:52.759Z,34.37
2019-01-31T02:37:28.843Z,33.23
2019-01-31T02:40:20.173Z,34.13
2019-01-31T02:42:58.118Z,32.23
2019-01-31T02:45:39.272Z,36.03
2019-01-31T02:48:23.733Z,30.87
2019-01-31T02:50:55.641Z,32.30
2019-01-31T02:53:36.188Z,33.93
2019-01-31T02:56:10.675Z,32.57
2019-01-31T02:58:51.210Z,32.93
2019-01-31T03:01:46.443Z,32.20
2019-01-31T03:04:17.997Z,29.93
2019-01-31T03:07:15.137Z,33.50
2019-01-31T03:09:54.963Z,30.40
2019-01-31T03:12:33.513Z,34.20
2019-01-31T03:15:05.373Z,32.90
2019-01-31T03:18:07.431Z,32.30
2019-01-31T03:20:50.947Z,32.37
2019-01-31T03:23:28.126Z,29.47
2019-01-31T03:26:06.041Z,30.63
2019-01-31T03:28:46.309Z,28.70
2019-01-31T03:31:30.225Z,33.10
2019-01-31T03:34:17.758Z,33.13
2019-01-31T03:37:04.391Z,30.57
2019-01-31T03:39:48.411Z,30.80
2019-01-31T03:42:36.659Z,32.20
2019-01-31T03:45:24.927Z,31.57
2019-01-31T03:48:15.411Z,33.53
2019-01-31T03:50:50.945Z,29.40
2019-01-31T03:53:25.584Z,33.60
2019-01-31T03:56:03.485Z,30.13
2019-01-31T03:58:37.837Z,30.80
2019-01-31T04:01:30.077Z,30.63
2019-01-31T04:04:01.959Z,32.33
2019-01-31T04:06:30.846Z,32.30
2019-01-31T04:08:59.336Z,28.67
2019-01-31T04:11:27.860Z,31.63
2019-01-31T04:13:56.315Z,29.77
2019-01-31T04:16:25.079Z,30.00
2019-01-31T04:18:54.490Z,29.37
2019-01-31T04:21:23.394Z,30.53
2019-01-31T04:23:52.244Z,30.60
2019-01-31T04:26:21.018Z,30.93
2019-01-31T04:28:49.860Z,30.00
2019-01-31T04:31:18.335Z,30.30
2019-01-31T04:33:47.079Z,29.67
2019-01-31T04:36:18.854Z,30.23
2019-01-31T04:38:47.359Z,29.43
2019-01-31T04:41:15.892Z,33.67
2019-01-31T04:43:44.725Z,30.20
2019-01-31T04:46:13.478Z,34.87
2019-01-31T04:48:42.187Z,33.57
2019-01-31T04:51:10.979Z,33.03
2019-01-31T04:53:39.795Z,39.13
2019-01-31T04:56:08.324Z,37.20
2019-01-31T04:58:37.102Z,36.80
2019-01-31T05:01:07.398Z,34.00
2019-01-31T05:03:38.038Z,36.10
2019-01-31T05:06:06.974Z,35.63
2019-01-31T05:08:35.768Z,35.13
2019-01-31T05:11:04.323Z,38.07
2019-01-31T05:13:32.850Z,35.13
2019-01-31T05:16:03.862Z,35.33
2019-01-31T05:18:31.806Z,36.27
2019-01-31T05:21:00.264Z,33.33
2019-01-31T05:23:28.817Z,33.03
2019-01-31T05:25:57.562Z,34.80
2019-01-31T05:28:26.020Z,33.97
2019-01-31T05:30:54.830Z,31.10
2019-01-31T05:33:24.757Z,31.80
2019-01-31T05:35:55.558Z,33.93
2019-01-31T05:38:24.372Z,32.40
2019-01-31T05:40:55.547Z,31.33
2019-01-31T05:43:24.212Z,37.20
2019-01-31T05:45:52.989Z,32.77
2019-01-31T05:48:21.880Z,37.10
2019-01-31T05:50:50.752Z,35.87
2019-01-31T05:53:19.237Z,36.93
2019-01-31T05:55:47.999Z,40.00
2019-01-31T05:58:16.444Z,37.47
2019-01-31T06:00:45.321Z,35.77
2019-01-31T06:03:14.116Z,34.60
2019-01-31T06:05:42.861Z,33.57
2019-01-31T06:08:11.632Z,35.70
2019-01-31T06:10:42.854Z,35.60
2019-01-31T06:13:11.308Z,33.53
2019-01-31T06:15:39.789Z,34.87
2019-01-31T06:18:08.446Z,33.17
2019-01-31T06:20:37.240Z,32.83
2019-01-31T06:23:08.296Z,31.93
2019-01-31T06:25:37.175Z,33.87
2019-01-31T06:28:06.144Z,35.80
2019-01-31T06:30:35.022Z,32.67
2019-01-31T06:33:03.847Z,38.03
2019-01-31T06:35:32.696Z,29.03
2019-01-31T06:38:01.447Z,31.60
2019-01-31T06:40:29.889Z,29.47
2019-01-31T06:42:58.350Z,31.97
2019-01-31T06:45:28.162Z,34.20
2019-01-31T06:47:56.888Z,30.17
2019-01-31T06:50:25.449Z,30.57
2019-01-31T06:52:53.999Z,31.00
2019-01-31T06:55:22.509Z,29.03
2019-01-31T06:57:50.996Z,31.23
2019-01-31T07:00:22.162Z,31.90
2019-01-31T07:02:52.578Z,28.73
2019-01-31T07:05:21.446Z,31.83
2019-01-31T07:07:49.999Z,30.03
2019-01-31T07:10:23.845Z,28.80
2019-01-31T07:12:53.203Z,27.63
2019-01-31T07:15:21.796Z,31.67
2019-01-31T07:17:55.192Z,29.23
2019-01-31T07:20:23.720Z,31.53
2019-01-31T07:22:52.309Z,33.27
2019-01-31T07:25:25.125Z,34.10
2019-01-31T07:27:54.217Z,34.50
2019-01-31T07:30:26.377Z,35.17
2019-01-31T07:32:54.161Z,30.27
2019-01-31T07:35:22.638Z,31.90
2019-01-31T07:37:52.986Z,29.30
2019-01-31T07:40:23.309Z,32.77
2019-01-31T07:42:55.610Z,31.90
2019-01-31T07:45:32.355Z,24.87
2019-01-31T07:48:10.721Z,27.67
2019-01-31T07:50:45.062Z,27.93
2019-01-31T07:53:13.605Z,24.97
2019-01-31T07:55:46.869Z,25.63
2019-01-31T07:58:15.527Z,26.37
2019-01-31T08:00:45.037Z,27.40
2019-01-31T08:03:13.959Z,27.33
2019-01-31T08:05:42.916Z,28.83
2019-01-31T08:08:13.007Z,32.87
2019-01-31T08:10:43.075Z,27.30
2019-01-31T08:13:12.003Z,27.27
2019-01-31T08:15:40.946Z,29.30
2019-01-31T08:18:11.098Z,31.13
2019-01-31T08:20:46.699Z,32.53
2019-01-31T08:23:15.329Z,28.03
2019-01-31T08:25:43.865Z,32.17
2019-01-31T08:28:14.073Z,27.13
2019-01-31T08:30:43.715Z,23.13
2019-01-31T08:33:12.787Z,14.23
2019-01-31T08:35:41.778Z,23.13
2019-01-31T08:38:10.559Z,25.80
2019-01-31T08:40:44.363Z,28.20
2019-01-31T08:43:59.784Z,28.40
2019-01-31T08:46:28.537Z,23.50
2019-01-31T08:48:57.345Z,27.17
2019-01-31T08:51:26.085Z,22.00
2019-01-31T08:53:54.699Z,24.67
2019-01-31T08:56:23.227Z,22.63
2019-01-31T08:58:52.039Z,23.50
2019-01-31T09:01:20.530Z,24.40
2019-01-31T09:03:49.407Z,25.07
2019-01-31T09:06:19.378Z,24.73
2019-01-31T09:08:48.205Z,25.17
2019-01-31T09:11:16.804Z,26.73
2019-01-31T09:13:45.588Z,26.23
2019-01-31T09:16:20.099Z,27.33
2019-01-31T09:18:49.860Z,28.13
2019-01-31T09:21:22.978Z,26.90
2019-01-31T09:23:57.579Z,26.43
2019-01-31T09:26:51.815Z,28.57
2019-01-31T09:29:32.233Z,36.73
2019-01-31T09:32:20.153Z,31.27
2019-01-31T09:35:12.547Z,34.30
2019-01-31T09:38:06.762Z,29.97
2019-01-31T09:40:41.276Z,31.90
2019-01-31T09:43:21.332Z,32.23
2019-01-31T09:46:04.856Z,30.00
2019-01-31T09:48:36.393Z,34.27
2019-01-31T09:51:13.692Z,33.13
2019-01-31T09:53:51.368Z,33.50
2019-01-31T09:56:34.965Z,31.73
2019-01-31T09:59:24.864Z,37.13
2019-01-31T10:02:13.113Z,27.63
2019-01-31T10:04:49.902Z,26.37
2019-01-31T10:07:43.976Z,26.97
2019-01-31T10:10:18.824Z,27.47
2019-01-31T10:13:24.485Z,27.90
2019-01-31T10:16:14.467Z,26.57
2019-01-31T10:18:54.416Z,34.00
2019-01-31T10:21:35.090Z,32.57
2019-01-31T10:24:29.469Z,30.17
2019-01-31T10:27:10.344Z,25.03
2019-01-31T10:29:52.956Z,23.73
2019-01-31T10:32:24.016Z,28.07
2019-01-31T10:34:56.714Z,27.17
2019-01-31T10:37:28.501Z,28.40
2019-01-31T10:40:12.367Z,25.53
2019-01-31T10:42:51.751Z,27.07
2019-01-31T10:45:42.784Z,25.80
2019-01-31T10:48:26.122Z,31.47
2019-01-31T10:51:06.400Z,28.33
2019-01-31T10:53:44.133Z,26.60
2019-01-31T10:56:44.289Z,23.10
2019-01-31T10:59:21.064Z,28.93
2019-01-31T11:02:07.918Z,30.80
2019-01-31T11:04:54.589Z,27.27
2019-01-31T11:07:38.066Z,30.93
2019-01-31T11:10:30.802Z,32.00
2019-01-31T11:13:20.553Z,29.70
2019-01-31T11:16:09.735Z,34.07
2019-01-31T11:19:11.657Z,35.87
2019-01-31T11:22:07.974Z,32.50
2019-01-31T11:24:39.647Z,26.43
2019-01-31T11:27:23.698Z,20.93
2019-01-31T11:29:57.794Z,25.57
2019-01-31T11:32:35.407Z,25.37
2019-01-31T11:35:24.716Z,27.73
2019-01-31T11:38:14.767Z,23.83
2019-01-31T11:41:09.107Z,24.97
2019-01-31T11:43:41.217Z,22.00
2019-01-31T11:46:21.857Z,23.47
2019-01-31T11:48:58.988Z,24.13
2019-01-31T11:51:56.363Z,23.60
2019-01-31T11:54:43.184Z,23.43
2019-01-31T11:57:29.725Z,24.10
2019-01-31T11:59:58.622Z,23.37
2019-01-31T12:02:27.209Z,26.13
2019-01-31T12:04:55.671Z,19.37
2019-01-31T12:07:24.433Z,26.27
2019-01-31T12:09:53.535Z,25.67
2019-01-31T12:12:21.983Z,21.30
2019-01-31T12:14:52.451Z,23.57
2019-01-31T12:17:22.977Z,26.37
2019-01-31T12:19:51.462Z,25.73
2019-01-31T12:22:19.935Z,26.30
2019-01-31T12:24:48.705Z,24.40
2019-01-31T12:27:18.571Z,29.10
2019-01-31T12:29:47.313Z,27.57
2019-01-31T12:32:16.031Z,28.57
2019-01-31T12:34:44.777Z,33.73
2019-01-31T12:37:13.656Z,28.53
2019-01-31T12:39:42.358Z,26.77
2019-01-31T12:42:11.138Z,28.47
2019-01-31T12:44:39.612Z,31.17
2019-01-31T12:47:08.418Z,26.60
2019-01-31T12:49:37.199Z,25.83
2019-01-31T12:52:06.096Z,29.20
2019-01-31T12:54:34.639Z,25.53
2019-01-31T12:57:03.473Z,28.50
2019-01-31T12:59:32.030Z,26.57
2019-01-31T13:02:00.852Z,28.40
2019-01-31T13:04:29.296Z,26.67
2019-01-31T13:06:57.841Z,27.83
2019-01-31T13:09:28.439Z,24.53
2019-01-31T13:11:56.847Z,27.07
2019-01-31T13:14:28.301Z,26.27
2019-01-31T13:16:56.022Z,28.43
2019-01-31T13:19:25.414Z,29.00
2019-01-31T13:21:57.666Z,27.67
2019-01-31T13:24:26.497Z,28.50
2019-01-31T13:26:54.989Z,25.67
2019-01-31T13:29:23.830Z,27.20
2019-01-31T13:31:52.283Z,28.10
2019-01-31T13:34:26.260Z,24.43
2019-01-31T13:36:55.017Z,25.03
2019-01-31T13:39:24.151Z,24.53
2019-01-31T13:41:52.982Z,24.43
2019-01-31T13:44:23.592Z,27.97
2019-01-31T13:46:52.201Z,26.87
2019-01-31T13:49:21.205Z,27.00
2019-01-31T13:51:50.000Z,24.97
2019-01-31T13:54:18.751Z,27.27
2019-01-31T13:56:47.212Z,26.37
2019-01-31T13:59:21.148Z,27.97
2019-01-31T14:01:49.728Z,23.43
2019-01-31T14:04:18.437Z,23.87
2019-01-31T14:06:48.813Z,22.60
2019-01-31T14:09:17.894Z,22.97
2019-01-31T14:11:48.211Z,23.07
2019-01-31T14:14:16.692Z,24.90
2019-01-31T14:16:47.758Z,22.27
2019-01-31T14:19:17.602Z,22.23
2019-01-31T14:21:46.080Z,24.23
2019-01-31T14:24:14.575Z,23.53
2019-01-31T14:26:45.419Z,23.30
2019-01-31T14:29:14.302Z,19.87
2019-01-31T14:31:43.148Z,18.37
2019-01-31T14:34:11.592Z,18.30
2019-01-31T14:36:40.325Z,18.77
2019-01-31T14:39:09.218Z,18.60
2019-01-31T14:41:39.499Z,21.87
2019-01-31T14:44:19.855Z,22.47
2019-01-31T14:46:40.158Z,22.63
2019-01-31T14:49:08.620Z,20.30
2019-01-31T14:51:38.164Z,19.27
2019-01-31T14:54:06.951Z,21.17
2019-01-31T14:56:35.400Z,21.83
2019-01-31T14:59:04.232Z,20.60
2019-01-31T15:01:33.875Z,19.73
2019-01-31T15:04:04.064Z,20.13
2019-01-31T15:06:32.932Z,21.00
2019-01-31T15:09:01.401Z,18.77
2019-01-31T15:11:31.724Z,21.87
2019-01-31T15:14:00.661Z,20.00
2019-01-31T15:16:29.450Z,20.27
2019-01-31T15:18:58.732Z,21.13
2019-01-31T15:21:27.301Z,21.03
2019-01-31T15:23:59.618Z,17.20
2019-01-31T15:26:29.145Z,20.53
2019-01-31T15:28:59.546Z,23.37
2019-01-31T15:31:28.917Z,24.10
2019-01-31T15:33:59.158Z,24.73
2019-01-31T15:36:30.613Z,20.53
2019-01-31T15:39:01.484Z,22.57
2019-01-31T15:41:30.395Z,21.57
2019-01-31T15:43:58.908Z,23.50
2019-01-31T15:46:30.167Z,24.43
2019-01-31T15:48:58.754Z,17.63
2019-01-31T15:51:27.605Z,23.77
2019-01-31T15:53:56.385Z,24.80
2019-01-31T15:56:24.928Z,22.53
2019-01-31T15:58:54.665Z,20.47
2019-01-31T16:01:23.116Z,22.47
2019-01-31T16:03:53.419Z,21.43
2019-01-31T16:06:22.345Z,23.63
2019-01-31T16:08:50.883Z,12.77
2019-01-31T16:11:19.448Z,24.73
2019-01-31T16:13:48.237Z,23.67
2019-01-31T16:16:20.383Z,23.47
2019-01-31T16:18:50.422Z,26.63
2019-01-31T16:21:18.895Z,22.40
2019-01-31T16:23:47.609Z,23.13
2019-01-31T16:26:16.092Z,23.47
2019-01-31T16:28:44.907Z,22.60
2019-01-31T16:31:13.362Z,22.10
2019-01-31T16:33:43.536Z,15.17
2019-01-31T16:36:12.058Z,20.93
2019-01-31T16:38:40.505Z,23.03
2019-01-31T16:41:09.249Z,23.60
2019-01-31T16:43:38.063Z,22.00
2019-01-31T16:46:07.037Z,23.47
2019-01-31T16:48:37.041Z,21.77
2019-01-31T16:51:05.938Z,20.67
2019-01-31T16:53:34.657Z,11.50
2019-01-31T16:56:05.482Z,16.47
2019-01-31T16:58:33.945Z,19.57
2019-01-31T17:01:04.425Z,20.93
2019-01-31T17:03:33.334Z,19.77
2019-01-31T17:06:01.917Z,19.73
2019-01-31T17:08:30.785Z,22.03
2019-01-31T17:10:59.245Z,23.20
2019-01-31T17:13:28.601Z,17.30
2019-01-31T17:15:57.562Z,25.17
2019-01-31T17:18:26.004Z,22.43
2019-01-31T17:20:54.454Z,22.77
2019-01-31T17:23:22.942Z,23.17
2019-01-31T17:25:51.731Z,27.10
2019-01-31T17:28:20.260Z,25.07
2019-01-31T17:30:49.189Z,24.83
2019-01-31T17:33:17.708Z,15.23
2019-01-31T17:35:46.188Z,26.10
2019-01-31T17:38:14.812Z,26.03
2019-01-31T17:40:43.769Z,21.27
2019-01-31T17:43:12.253Z,27.20
2019-01-31T17:45:40.899Z,27.17
2019-01-31T17:48:09.932Z,22.57
2019-01-31T17:50:38.734Z,26.27
2019-01-31T17:53:07.250Z,19.00
2019-01-31T17:55:35.764Z,26.53
2019-01-31T17:58:04.453Z,23.13
2019-01-31T18:00:38.543Z,19.60
2019-01-31T18:03:08.266Z,15.67
2019-01-31T18:05:36.967Z,27.43
2019-01-31T18:08:09.369Z,29.00
2019-01-31T18:10:37.996Z,30.27
2019-01-31T18:13:06.768Z,32.63
2019-01-31T18:15:42.001Z,32.07
2019-01-31T18:18:06.545Z,29.53
2019-01-31T18:20:35.006Z,31.07
2019-01-31T18:23:03.900Z,17.93
2019-01-31T18:25:32.754Z,25.57
2019-01-31T18:28:01.539Z,32.17
2019-01-31T18:30:35.945Z,28.10
2019-01-31T18:33:05.297Z,21.67
2019-01-31T18:35:37.136Z,29.00
2019-01-31T18:38:06.050Z,31.67
2019-01-31T18:40:36.048Z,28.60
2019-01-31T18:43:05.639Z,27.80
2019-01-31T18:45:35.646Z,28.60
2019-01-31T18:48:06.386Z,30.40
2019-01-31T18:50:37.606Z,32.33
2019-01-31T18:53:06.269Z,27.90
2019-01-31T18:55:34.950Z,29.13
2019-01-31T18:58:04.381Z,31.40
2019-01-31T19:00:40.463Z,30.37
2019-01-31T19:03:09.425Z,30.00
2019-01-31T19:05:38.032Z,30.50
2019-01-31T19:08:08.821Z,33.30
2019-01-31T19:10:43.483Z,34.50
2019-01-31T19:13:08.912Z,32.60
2019-01-31T19:15:37.402Z,31.70
2019-01-31T19:18:06.578Z,32.40
2019-01-31T19:20:35.479Z,32.43
2019-01-31T19:23:07.322Z,33.87
2019-01-31T19:25:35.855Z,35.33
2019-01-31T19:28:05.368Z,34.07
2019-01-31T19:30:37.386Z,36.50
2019-01-31T19:33:06.976Z,33.83
2019-01-31T19:35:37.112Z,34.57
2019-01-31T19:38:10.090Z,38.33
2019-01-31T19:40:41.208Z,35.27
2019-01-31T19:43:09.925Z,34.97
2019-01-31T19:45:46.861Z,32.37
2019-01-31T19:48:15.465Z,36.90
2019-01-31T19:50:46.270Z,38.17
2019-01-31T19:53:18.337Z,32.50
2019-01-31T19:55:46.860Z,37.47
2019-01-31T19:58:15.459Z,33.30
2019-01-31T20:00:44.164Z,35.27
2019-01-31T20:03:13.933Z,38.27
2019-01-31T20:05:42.514Z,37.40
2019-01-31T20:08:11.516Z,37.40
2019-01-31T20:10:40.349Z,42.67
2019-01-31T20:13:08.888Z,40.07
2019-01-31T20:15:37.453Z,46.43
2019-01-31T20:18:06.651Z,39.93
2019-01-31T20:20:35.266Z,41.93
2019-01-31T20:23:04.263Z,46.10
2019-01-31T20:25:33.076Z,23.53
2019-01-31T20:28:01.526Z,42.30
2019-01-31T20:30:32.714Z,45.17
2019-01-31T20:33:02.062Z,45.43
2019-01-31T20:35:31.420Z,50.60
2019-01-31T20:38:00.331Z,48.17
2019-01-31T20:40:37.042Z,45.70
2019-01-31T20:43:07.306Z,44.53
2019-01-31T20:45:36.287Z,49.77
2019-01-31T20:48:14.950Z,52.37
2019-01-31T20:50:43.642Z,35.87
2019-01-31T20:53:13.735Z,45.33
2019-01-31T20:55:42.591Z,52.23
2019-01-31T20:58:11.047Z,48.70
2019-01-31T21:00:41.555Z,29.43
2019-01-31T21:03:10.834Z,29.47
2019-01-31T21:05:41.163Z,29.37
2019-01-31T21:08:11.134Z,45.20
2019-01-31T21:10:39.668Z,37.50
2019-01-31T21:13:08.634Z,46.50
2019-01-31T21:15:37.289Z,42.30
2019-01-31T21:18:06.381Z,41.83
2019-01-31T21:20:35.095Z,45.70
2019-01-31T21:23:04.290Z,44.37
2019-01-31T21:25:34.467Z,39.80
2019-01-31T21:28:08.238Z,32.47
2019-01-31T21:30:38.741Z,38.37
2019-01-31T21:33:07.202Z,31.37
2019-01-31T21:35:35.868Z,28.80
2019-01-31T21:38:07.052Z,28.53
2019-01-31T21:40:36.021Z,30.50
2019-01-31T21:43:08.112Z,26.63
2019-01-31T21:45:36.793Z,16.47
2019-01-31T21:48:06.093Z,31.47
2019-01-31T21:50:35.064Z,33.57
2019-01-31T21:53:04.098Z,31.50
2019-01-31T21:55:34.902Z,29.10
2019-01-31T21:58:05.478Z,25.20
2019-01-31T22:00:35.856Z,24.10
2019-01-31T22:03:05.271Z,13.37
2019-01-31T22:05:34.310Z,14.17
2019-01-31T22:08:03.320Z,21.07
2019-01-31T22:10:32.417Z,13.77
2019-01-31T22:13:02.982Z,21.13
2019-01-31T22:15:37.668Z,18.43
2019-01-31T22:18:06.666Z,9.53
2019-01-31T22:20:36.806Z,16.07
2019-01-31T22:23:05.886Z,20.27
2019-01-31T22:25:34.522Z,18.13
2019-01-31T22:28:06.001Z,13.17
2019-01-31T22:30:36.213Z,18.83
2019-01-31T22:33:06.204Z,17.90
2019-01-31T22:35:37.442Z,13.67
2019-01-31T22:38:06.535Z,19.87
2019-01-31T22:40:35.337Z,7.67
2019-01-31T22:43:05.903Z,18.93
2019-01-31T22:45:34.656Z,17.47
2019-01-31T22:48:04.996Z,16.30
2019-01-31T22:50:35.269Z,16.63
2019-01-31T22:53:05.204Z,14.23
2019-01-31T22:55:34.869Z,14.90
2019-01-31T22:58:03.446Z,19.67
2019-01-31T23:00:48.782Z,11.97
2019-01-31T23:03:17.770Z,17.07
2019-01-31T23:05:47.010Z,17.77
2019-01-31T23:08:15.598Z,18.10
2019-01-31T23:10:44.078Z,15.80
2019-01-31T23:13:13.292Z,16.80
2019-01-31T23:15:42.030Z,17.70
2019-01-31T23:18:10.586Z,16.03
2019-01-31T23:20:39.052Z,13.57
2019-01-31T23:23:07.587Z,18.10
2019-01-31T23:25:40.346Z,16.53
2019-01-31T23:28:06.686Z,12.97
2019-01-31T23:30:35.564Z,16.03
2019-01-31T23:33:04.706Z,13.93
2019-01-31T23:35:33.220Z,14.93
2019-01-31T23:38:02.084Z,16.07
2019-01-31T23:40:31.048Z,7.80
2019-01-31T23:43:01.210Z,11.20
2019-01-31T23:45:29.885Z,12.10
2019-01-31T23:47:58.854Z,15.37
2019-01-31T23:50:27.666Z,14.07
2019-01-31T23:52:56.260Z,14.67
2019-01-31T23:55:26.974Z,15.77
2019-01-31T23:57:56.200Z,11.23
